sensor_id;sensor_type;location;lat;lon;timestamp;P1;durP1;ratioP1;P2;durP2;ratioP2
60088;SDS011;45961;53.574;55.878;2024-01-30T00:00:37;16.83;;;7.43;;
60088;SDS011;45961;53.574;55.878;2024-01-30T00:01:38;16.42;;;8.15;;
60088;SDS011;45961;53.574;55.878;2024-01-30T00:02:39;14.77;;;8.73;;
60088;SDS011;45961;53.574;55.878;2024-01-30T00:03:40;17.80;;;8.20;;
60088;SDS011;45961;53.574;55.878;2024-01-30T00:04:40;13.25;;;7.78;;
60088;SDS011;45961;53.574;55.878;2024-01-30T00:05:42;17.95;;;8.55;;
60088;SDS011;45961;53.574;55.878;2024-01-30T00:06:45;12.88;;;8.00;;
60088;SDS011;45961;53.574;55.878;2024-01-30T00:07:46;16.15;;;8.68;;
60088;SDS011;45961;53.574;55.878;2024-01-30T00:08:47;17.77;;;7.90;;
60088;SDS011;45961;53.574;55.878;2024-01-30T00:09:49;15.82;;;8.77;;
60088;SDS011;45961;53.574;55.878;2024-01-30T00:10:50;17.23;;;8.90;;
60088;SDS011;45961;53.574;55.878;2024-01-30T00:11:51;18.33;;;8.63;;
60088;SDS011;45961;53.574;55.878;2024-01-30T00:12:53;19.10;;;9.75;;
60088;SDS011;45961;53.574;55.878;2024-01-30T00:13:54;16.95;;;8.73;;
60088;SDS011;45961;53.574;55.878;2024-01-30T00:14:58;18.50;;;9.52;;
60088;SDS011;45961;53.574;55.878;2024-01-30T00:15:59;21.42;;;10.05;;
60088;SDS011;45961;53.574;55.878;2024-01-30T00:17:00;17.40;;;9.02;;
60088;SDS011;45961;53.574;55.878;2024-01-30T00:18:01;17.27;;;9.85;;
60088;SDS011;45961;53.574;55.878;2024-01-30T00:19:02;24.35;;;11.20;;
60088;SDS011;45961;53.574;55.878;2024-01-30T00:20:04;22.98;;;10.65;;
60088;SDS011;45961;53.574;55.878;2024-01-30T00:21:06;24.55;;;10.88;;
60088;SDS011;45961;53.574;55.878;2024-01-30T00:22:06;23.08;;;12.50;;
60088;SDS011;45961;53.574;55.878;2024-01-30T00:24:09;17.63;;;9.55;;
60088;SDS011;45961;53.574;55.878;2024-01-30T00:26:11;19.35;;;10.20;;
60088;SDS011;45961;53.574;55.878;2024-01-30T00:27:12;22.70;;;10.30;;
60088;SDS011;45961;53.574;55.878;2024-01-30T00:28:13;22.80;;;11.50;;
60088;SDS011;45961;53.574;55.878;2024-01-30T00:29:14;24.27;;;11.25;;
60088;SDS011;45961;53.574;55.878;2024-01-30T00:30:20;23.05;;;11.35;;
60088;SDS011;45961;53.574;55.878;2024-01-30T00:31:21;22.95;;;10.80;;
60088;SDS011;45961;53.574;55.878;2024-01-30T00:32:22;23.15;;;11.30;;
60088;SDS011;45961;53.574;55.878;2024-01-30T00:33:24;24.77;;;12.32;;
60088;SDS011;45961;53.574;55.878;2024-01-30T00:34:25;27.60;;;13.07;;
60088;SDS011;45961;53.574;55.878;2024-01-30T00:35:26;23.98;;;12.40;;
60088;SDS011;45961;53.574;55.878;2024-01-30T00:36:27;30.40;;;14.13;;
60088;SDS011;45961;53.574;55.878;2024-01-30T00:37:30;28.02;;;13.20;;
60088;SDS011;45961;53.574;55.878;2024-01-30T00:38:32;32.42;;;15.50;;
60088;SDS011;45961;53.574;55.878;2024-01-30T00:39:33;37.28;;;16.80;;
60088;SDS011;45961;53.574;55.878;2024-01-30T00:40:34;37.20;;;16.60;;
60088;SDS011;45961;53.574;55.878;2024-01-30T00:41:35;37.60;;;16.95;;
60088;SDS011;45961;53.574;55.878;2024-01-30T00:43:37;36.08;;;16.45;;
60088;SDS011;45961;53.574;55.878;2024-01-30T00:44:38;32.45;;;16.83;;
60088;SDS011;45961;53.574;55.878;2024-01-30T00:45:39;38.08;;;18.38;;
60088;SDS011;45961;53.574;55.878;2024-01-30T00:46:40;39.40;;;18.10;;
60088;SDS011;45961;53.574;55.878;2024-01-30T00:47:41;41.45;;;18.15;;
60088;SDS011;45961;53.574;55.878;2024-01-30T00:49:43;37.53;;;16.00;;
60088;SDS011;45961;53.574;55.878;2024-01-30T00:50:44;35.80;;;16.65;;
60088;SDS011;45961;53.574;55.878;2024-01-30T00:51:45;41.45;;;17.83;;
60088;SDS011;45961;53.574;55.878;2024-01-30T00:52:46;40.45;;;16.67;;
60088;SDS011;45961;53.574;55.878;2024-01-30T00:53:47;36.78;;;16.90;;
60088;SDS011;45961;53.574;55.878;2024-01-30T00:54:48;41.72;;;16.83;;
60088;SDS011;45961;53.574;55.878;2024-01-30T00:55:49;37.40;;;17.58;;
60088;SDS011;45961;53.574;55.878;2024-01-30T00:56:50;35.42;;;18.40;;
60088;SDS011;45961;53.574;55.878;2024-01-30T00:57:51;41.35;;;18.25;;
60088;SDS011;45961;53.574;55.878;2024-01-30T00:58:52;40.97;;;17.42;;
60088;SDS011;45961;53.574;55.878;2024-01-30T00:59:53;39.33;;;17.42;;
60088;SDS011;45961;53.574;55.878;2024-01-30T01:00:54;37.42;;;17.20;;
60088;SDS011;45961;53.574;55.878;2024-01-30T01:01:55;35.42;;;17.67;;
60088;SDS011;45961;53.574;55.878;2024-01-30T01:02:56;39.67;;;17.58;;
60088;SDS011;45961;53.574;55.878;2024-01-30T01:03:56;35.95;;;18.13;;
60088;SDS011;45961;53.574;55.878;2024-01-30T01:04:58;35.30;;;17.48;;
60088;SDS011;45961;53.574;55.878;2024-01-30T01:05:59;36.67;;;17.88;;
60088;SDS011;45961;53.574;55.878;2024-01-30T01:07:00;37.97;;;17.40;;
60088;SDS011;45961;53.574;55.878;2024-01-30T01:08:01;38.28;;;18.65;;
60088;SDS011;45961;53.574;55.878;2024-01-30T01:09:02;33.90;;;17.30;;
60088;SDS011;45961;53.574;55.878;2024-01-30T01:10:04;43.15;;;19.00;;
60088;SDS011;45961;53.574;55.878;2024-01-30T01:12:06;40.47;;;18.90;;
60088;SDS011;45961;53.574;55.878;2024-01-30T01:13:07;40.30;;;17.42;;
60088;SDS011;45961;53.574;55.878;2024-01-30T01:14:12;38.25;;;18.23;;
60088;SDS011;45961;53.574;55.878;2024-01-30T01:15:13;45.17;;;19.52;;
60088;SDS011;45961;53.574;55.878;2024-01-30T01:16:14;40.88;;;19.38;;
60088;SDS011;45961;53.574;55.878;2024-01-30T01:17:15;43.97;;;20.23;;
60088;SDS011;45961;53.574;55.878;2024-01-30T01:18:16;42.80;;;20.60;;
60088;SDS011;45961;53.574;55.878;2024-01-30T01:19:17;44.00;;;21.77;;
60088;SDS011;45961;53.574;55.878;2024-01-30T01:20:18;46.28;;;20.92;;
60088;SDS011;45961;53.574;55.878;2024-01-30T01:21:19;41.78;;;20.90;;
60088;SDS011;45961;53.574;55.878;2024-01-30T01:22:20;43.13;;;22.05;;
60088;SDS011;45961;53.574;55.878;2024-01-30T01:23:21;42.13;;;20.48;;
60088;SDS011;45961;53.574;55.878;2024-01-30T01:24:22;48.72;;;21.48;;
60088;SDS011;45961;53.574;55.878;2024-01-30T01:25:23;44.38;;;20.83;;
60088;SDS011;45961;53.574;55.878;2024-01-30T01:26:24;49.40;;;22.23;;
60088;SDS011;45961;53.574;55.878;2024-01-30T01:27:25;48.00;;;21.23;;
60088;SDS011;45961;53.574;55.878;2024-01-30T01:28:26;43.78;;;20.25;;
60088;SDS011;45961;53.574;55.878;2024-01-30T01:30:31;41.80;;;20.60;;
60088;SDS011;45961;53.574;55.878;2024-01-30T01:31:31;49.08;;;22.00;;
60088;SDS011;45961;53.574;55.878;2024-01-30T01:32:32;38.58;;;19.48;;
60088;SDS011;45961;53.574;55.878;2024-01-30T01:33:33;44.13;;;21.52;;
60088;SDS011;45961;53.574;55.878;2024-01-30T01:35:35;43.58;;;19.55;;
60088;SDS011;45961;53.574;55.878;2024-01-30T01:36:36;47.42;;;20.48;;
60088;SDS011;45961;53.574;55.878;2024-01-30T01:37:37;40.47;;;20.23;;
60088;SDS011;45961;53.574;55.878;2024-01-30T01:38:38;48.95;;;22.30;;
60088;SDS011;45961;53.574;55.878;2024-01-30T01:39:39;45.20;;;22.02;;
60088;SDS011;45961;53.574;55.878;2024-01-30T01:40:40;45.53;;;22.60;;
60088;SDS011;45961;53.574;55.878;2024-01-30T01:41:41;47.47;;;21.83;;
60088;SDS011;45961;53.574;55.878;2024-01-30T01:42:42;54.50;;;23.88;;
60088;SDS011;45961;53.574;55.878;2024-01-30T01:43:44;49.50;;;22.42;;
60088;SDS011;45961;53.574;55.878;2024-01-30T01:44:45;48.55;;;22.10;;
60088;SDS011;45961;53.574;55.878;2024-01-30T01:46:47;38.33;;;20.90;;
60088;SDS011;45961;53.574;55.878;2024-01-30T01:47:50;45.22;;;21.98;;
60088;SDS011;45961;53.574;55.878;2024-01-30T01:48:52;43.67;;;21.35;;
60088;SDS011;45961;53.574;55.878;2024-01-30T01:49:54;50.25;;;22.23;;
60088;SDS011;45961;53.574;55.878;2024-01-30T01:50:55;48.17;;;23.15;;
60088;SDS011;45961;53.574;55.878;2024-01-30T01:51:56;48.22;;;24.33;;
60088;SDS011;45961;53.574;55.878;2024-01-30T01:52:58;48.88;;;22.50;;
60088;SDS011;45961;53.574;55.878;2024-01-30T01:54:00;47.88;;;22.60;;
60088;SDS011;45961;53.574;55.878;2024-01-30T01:55:04;51.65;;;23.80;;
60088;SDS011;45961;53.574;55.878;2024-01-30T01:56:06;44.13;;;23.50;;
60088;SDS011;45961;53.574;55.878;2024-01-30T01:57:07;47.28;;;22.92;;
60088;SDS011;45961;53.574;55.878;2024-01-30T01:58:08;47.92;;;21.92;;
60088;SDS011;45961;53.574;55.878;2024-01-30T01:59:14;50.30;;;23.83;;
60088;SDS011;45961;53.574;55.878;2024-01-30T02:00:15;53.47;;;23.48;;
60088;SDS011;45961;53.574;55.878;2024-01-30T02:01:20;51.72;;;25.40;;
60088;SDS011;45961;53.574;55.878;2024-01-30T02:02:22;47.78;;;24.63;;
60088;SDS011;45961;53.574;55.878;2024-01-30T02:03:25;54.90;;;25.70;;
60088;SDS011;45961;53.574;55.878;2024-01-30T02:04:26;53.75;;;26.35;;
60088;SDS011;45961;53.574;55.878;2024-01-30T02:05:27;51.28;;;25.70;;
60088;SDS011;45961;53.574;55.878;2024-01-30T02:07:29;52.28;;;23.23;;
60088;SDS011;45961;53.574;55.878;2024-01-30T02:08:29;55.80;;;24.08;;
60088;SDS011;45961;53.574;55.878;2024-01-30T02:09:31;46.33;;;23.88;;
60088;SDS011;45961;53.574;55.878;2024-01-30T02:10:33;56.28;;;27.48;;
60088;SDS011;45961;53.574;55.878;2024-01-30T02:11:34;60.90;;;27.38;;
60088;SDS011;45961;53.574;55.878;2024-01-30T02:12:35;54.17;;;26.75;;
60088;SDS011;45961;53.574;55.878;2024-01-30T02:13:37;54.33;;;25.35;;
60088;SDS011;45961;53.574;55.878;2024-01-30T02:14:44;59.15;;;29.85;;
60088;SDS011;45961;53.574;55.878;2024-01-30T02:15:50;60.40;;;26.25;;
60088;SDS011;45961;53.574;55.878;2024-01-30T02:16:51;60.55;;;26.85;;
60088;SDS011;45961;53.574;55.878;2024-01-30T02:17:52;63.28;;;26.75;;
60088;SDS011;45961;53.574;55.878;2024-01-30T02:19:13;62.42;;;27.30;;
60088;SDS011;45961;53.574;55.878;2024-01-30T02:20:14;61.47;;;27.23;;
60088;SDS011;45961;53.574;55.878;2024-01-30T02:21:15;65.63;;;28.48;;
60088;SDS011;45961;53.574;55.878;2024-01-30T02:22:16;60.08;;;28.30;;
60088;SDS011;45961;53.574;55.878;2024-01-30T02:23:19;60.50;;;29.23;;
60088;SDS011;45961;53.574;55.878;2024-01-30T02:24:20;57.08;;;26.85;;
60088;SDS011;45961;53.574;55.878;2024-01-30T02:25:30;55.58;;;27.05;;
60088;SDS011;45961;53.574;55.878;2024-01-30T02:26:34;55.88;;;28.83;;
60088;SDS011;45961;53.574;55.878;2024-01-30T02:27:35;63.42;;;28.23;;
60088;SDS011;45961;53.574;55.878;2024-01-30T02:28:36;57.20;;;27.77;;
60088;SDS011;45961;53.574;55.878;2024-01-30T02:29:37;61.53;;;28.02;;
60088;SDS011;45961;53.574;55.878;2024-01-30T02:30:44;63.42;;;30.20;;
60088;SDS011;45961;53.574;55.878;2024-01-30T02:31:46;56.58;;;27.73;;
60088;SDS011;45961;53.574;55.878;2024-01-30T02:33:48;60.40;;;28.45;;
60088;SDS011;45961;53.574;55.878;2024-01-30T02:34:49;63.42;;;28.58;;
60088;SDS011;45961;53.574;55.878;2024-01-30T02:35:51;63.33;;;29.17;;
60088;SDS011;45961;53.574;55.878;2024-01-30T02:36:52;65.18;;;28.85;;
60088;SDS011;45961;53.574;55.878;2024-01-30T02:37:52;59.08;;;28.70;;
60088;SDS011;45961;53.574;55.878;2024-01-30T02:38:53;60.42;;;28.15;;
60088;SDS011;45961;53.574;55.878;2024-01-30T02:39:55;58.58;;;27.65;;
60088;SDS011;45961;53.574;55.878;2024-01-30T02:40:55;58.47;;;27.55;;
60088;SDS011;45961;53.574;55.878;2024-01-30T02:41:59;61.92;;;27.17;;
60088;SDS011;45961;53.574;55.878;2024-01-30T02:43:01;62.67;;;28.38;;
60088;SDS011;45961;53.574;55.878;2024-01-30T02:44:03;59.30;;;26.73;;
60088;SDS011;45961;53.574;55.878;2024-01-30T02:45:04;58.78;;;27.40;;
60088;SDS011;45961;53.574;55.878;2024-01-30T02:46:06;58.90;;;28.77;;
60088;SDS011;45961;53.574;55.878;2024-01-30T02:47:07;59.80;;;28.52;;
60088;SDS011;45961;53.574;55.878;2024-01-30T02:48:08;61.47;;;28.73;;
60088;SDS011;45961;53.574;55.878;2024-01-30T02:49:09;55.25;;;27.85;;
60088;SDS011;45961;53.574;55.878;2024-01-30T02:50:10;60.65;;;30.00;;
60088;SDS011;45961;53.574;55.878;2024-01-30T02:51:12;54.95;;;26.17;;
60088;SDS011;45961;53.574;55.878;2024-01-30T02:52:13;64.85;;;29.45;;
60088;SDS011;45961;53.574;55.878;2024-01-30T02:53:14;62.10;;;30.65;;
60088;SDS011;45961;53.574;55.878;2024-01-30T02:54:15;60.42;;;29.75;;
60088;SDS011;45961;53.574;55.878;2024-01-30T02:55:16;57.75;;;28.17;;
60088;SDS011;45961;53.574;55.878;2024-01-30T02:56:18;63.00;;;28.77;;
60088;SDS011;45961;53.574;55.878;2024-01-30T02:57:19;54.75;;;27.27;;
60088;SDS011;45961;53.574;55.878;2024-01-30T02:58:20;60.85;;;29.65;;
60088;SDS011;45961;53.574;55.878;2024-01-30T02:59:22;57.03;;;28.90;;
60088;SDS011;45961;53.574;55.878;2024-01-30T03:00:23;61.58;;;30.27;;
60088;SDS011;45961;53.574;55.878;2024-01-30T03:01:24;63.67;;;31.38;;
60088;SDS011;45961;53.574;55.878;2024-01-30T03:02:25;62.15;;;31.27;;
60088;SDS011;45961;53.574;55.878;2024-01-30T03:03:26;55.67;;;29.20;;
60088;SDS011;45961;53.574;55.878;2024-01-30T03:04:27;58.40;;;29.27;;
60088;SDS011;45961;53.574;55.878;2024-01-30T03:05:30;66.72;;;31.73;;
60088;SDS011;45961;53.574;55.878;2024-01-30T03:06:32;59.17;;;29.77;;
60088;SDS011;45961;53.574;55.878;2024-01-30T03:07:33;63.10;;;29.52;;
60088;SDS011;45961;53.574;55.878;2024-01-30T03:08:34;69.85;;;31.17;;
60088;SDS011;45961;53.574;55.878;2024-01-30T03:09:36;62.78;;;30.35;;
60088;SDS011;45961;53.574;55.878;2024-01-30T03:10:37;64.25;;;30.77;;
60088;SDS011;45961;53.574;55.878;2024-01-30T03:11:38;60.08;;;28.98;;
60088;SDS011;45961;53.574;55.878;2024-01-30T03:12:39;70.88;;;31.60;;
60088;SDS011;45961;53.574;55.878;2024-01-30T03:13:40;61.00;;;29.10;;
60088;SDS011;45961;53.574;55.878;2024-01-30T03:14:41;65.57;;;30.38;;
60088;SDS011;45961;53.574;55.878;2024-01-30T03:15:42;74.40;;;32.70;;
60088;SDS011;45961;53.574;55.878;2024-01-30T03:16:43;58.88;;;30.20;;
60088;SDS011;45961;53.574;55.878;2024-01-30T03:17:44;63.13;;;30.75;;
60088;SDS011;45961;53.574;55.878;2024-01-30T03:18:45;59.75;;;28.98;;
60088;SDS011;45961;53.574;55.878;2024-01-30T03:19:46;62.75;;;29.70;;
60088;SDS011;45961;53.574;55.878;2024-01-30T03:20:47;71.30;;;32.72;;
60088;SDS011;45961;53.574;55.878;2024-01-30T03:21:48;59.13;;;30.00;;
60088;SDS011;45961;53.574;55.878;2024-01-30T03:22:49;66.95;;;32.10;;
60088;SDS011;45961;53.574;55.878;2024-01-30T03:23:50;71.65;;;31.67;;
60088;SDS011;45961;53.574;55.878;2024-01-30T03:24:51;71.90;;;31.98;;
60088;SDS011;45961;53.574;55.878;2024-01-30T03:25:52;67.50;;;31.58;;
60088;SDS011;45961;53.574;55.878;2024-01-30T03:26:53;61.22;;;29.40;;
60088;SDS011;45961;53.574;55.878;2024-01-30T03:27:55;65.22;;;30.40;;
60088;SDS011;45961;53.574;55.878;2024-01-30T03:28:56;70.72;;;32.17;;
60088;SDS011;45961;53.574;55.878;2024-01-30T03:29:56;63.92;;;31.27;;
60088;SDS011;45961;53.574;55.878;2024-01-30T03:30:57;72.35;;;32.83;;
60088;SDS011;45961;53.574;55.878;2024-01-30T03:31:58;68.38;;;30.65;;
60088;SDS011;45961;53.574;55.878;2024-01-30T03:33:01;62.70;;;31.23;;
60088;SDS011;45961;53.574;55.878;2024-01-30T03:34:02;75.30;;;32.30;;
60088;SDS011;45961;53.574;55.878;2024-01-30T03:35:03;69.72;;;33.10;;
60088;SDS011;45961;53.574;55.878;2024-01-30T03:36:04;76.18;;;33.28;;
60088;SDS011;45961;53.574;55.878;2024-01-30T03:37:06;66.13;;;32.47;;
60088;SDS011;45961;53.574;55.878;2024-01-30T03:38:07;61.63;;;30.05;;
60088;SDS011;45961;53.574;55.878;2024-01-30T03:39:08;67.72;;;30.33;;
60088;SDS011;45961;53.574;55.878;2024-01-30T03:40:09;67.53;;;33.90;;
60088;SDS011;45961;53.574;55.878;2024-01-30T03:42:11;67.90;;;32.60;;
60088;SDS011;45961;53.574;55.878;2024-01-30T03:43:12;67.63;;;30.92;;
60088;SDS011;45961;53.574;55.878;2024-01-30T03:44:13;61.00;;;29.98;;
60088;SDS011;45961;53.574;55.878;2024-01-30T03:45:14;70.90;;;33.47;;
60088;SDS011;45961;53.574;55.878;2024-01-30T03:46:16;72.63;;;32.92;;
60088;SDS011;45961;53.574;55.878;2024-01-30T03:47:17;70.97;;;34.22;;
60088;SDS011;45961;53.574;55.878;2024-01-30T03:48:18;74.90;;;34.65;;
60088;SDS011;45961;53.574;55.878;2024-01-30T03:49:20;74.63;;;34.00;;
60088;SDS011;45961;53.574;55.878;2024-01-30T03:50:21;71.95;;;33.88;;
60088;SDS011;45961;53.574;55.878;2024-01-30T03:51:22;68.50;;;34.70;;
60088;SDS011;45961;53.574;55.878;2024-01-30T03:52:23;70.70;;;34.15;;
60088;SDS011;45961;53.574;55.878;2024-01-30T03:53:24;72.03;;;34.15;;
60088;SDS011;45961;53.574;55.878;2024-01-30T03:54:25;67.95;;;34.45;;
60088;SDS011;45961;53.574;55.878;2024-01-30T03:55:27;68.30;;;34.65;;
60088;SDS011;45961;53.574;55.878;2024-01-30T03:56:28;74.13;;;34.65;;
60088;SDS011;45961;53.574;55.878;2024-01-30T03:57:28;72.68;;;35.35;;
60088;SDS011;45961;53.574;55.878;2024-01-30T03:58:29;72.82;;;35.13;;
60088;SDS011;45961;53.574;55.878;2024-01-30T03:59:31;68.32;;;33.95;;
60088;SDS011;45961;53.574;55.878;2024-01-30T04:00:35;78.13;;;36.30;;
60088;SDS011;45961;53.574;55.878;2024-01-30T04:01:36;76.00;;;33.92;;
60088;SDS011;45961;53.574;55.878;2024-01-30T04:02:37;75.85;;;35.65;;
60088;SDS011;45961;53.574;55.878;2024-01-30T04:03:38;72.57;;;34.92;;
60088;SDS011;45961;53.574;55.878;2024-01-30T04:04:39;70.78;;;34.45;;
60088;SDS011;45961;53.574;55.878;2024-01-30T04:05:40;75.43;;;33.70;;
60088;SDS011;45961;53.574;55.878;2024-01-30T04:06:41;73.40;;;35.63;;
60088;SDS011;45961;53.574;55.878;2024-01-30T04:07:42;72.35;;;34.13;;
60088;SDS011;45961;53.574;55.878;2024-01-30T04:08:43;66.50;;;33.13;;
60088;SDS011;45961;53.574;55.878;2024-01-30T04:09:44;71.35;;;33.83;;
60088;SDS011;45961;53.574;55.878;2024-01-30T04:10:46;70.15;;;33.55;;
60088;SDS011;45961;53.574;55.878;2024-01-30T04:11:47;69.45;;;32.88;;
60088;SDS011;45961;53.574;55.878;2024-01-30T04:13:08;61.75;;;31.33;;
60088;SDS011;45961;53.574;55.878;2024-01-30T04:15:11;61.47;;;29.80;;
60088;SDS011;45961;53.574;55.878;2024-01-30T04:16:20;62.42;;;28.95;;
60088;SDS011;45961;53.574;55.878;2024-01-30T04:17:24;64.22;;;29.13;;
60088;SDS011;45961;53.574;55.878;2024-01-30T04:18:25;62.45;;;29.63;;
60088;SDS011;45961;53.574;55.878;2024-01-30T04:19:26;61.75;;;30.20;;
60088;SDS011;45961;53.574;55.878;2024-01-30T04:20:27;66.68;;;30.08;;
60088;SDS011;45961;53.574;55.878;2024-01-30T04:22:29;63.78;;;28.92;;
60088;SDS011;45961;53.574;55.878;2024-01-30T04:23:30;58.88;;;30.00;;
60088;SDS011;45961;53.574;55.878;2024-01-30T04:24:31;63.72;;;31.08;;
60088;SDS011;45961;53.574;55.878;2024-01-30T04:26:33;56.88;;;28.88;;
60088;SDS011;45961;53.574;55.878;2024-01-30T04:27:34;62.15;;;29.83;;
60088;SDS011;45961;53.574;55.878;2024-01-30T04:28:35;60.05;;;30.35;;
60088;SDS011;45961;53.574;55.878;2024-01-30T04:29:36;59.03;;;29.13;;
60088;SDS011;45961;53.574;55.878;2024-01-30T04:30:37;62.47;;;31.50;;
60088;SDS011;45961;53.574;55.878;2024-01-30T04:31:38;58.25;;;27.83;;
60088;SDS011;45961;53.574;55.878;2024-01-30T04:32:40;60.72;;;29.88;;
60088;SDS011;45961;53.574;55.878;2024-01-30T04:33:41;59.35;;;27.40;;
60088;SDS011;45961;53.574;55.878;2024-01-30T04:34:42;64.32;;;29.70;;
60088;SDS011;45961;53.574;55.878;2024-01-30T04:35:43;57.13;;;30.00;;
60088;SDS011;45961;53.574;55.878;2024-01-30T04:36:44;63.63;;;30.73;;
60088;SDS011;45961;53.574;55.878;2024-01-30T04:37:45;59.38;;;29.98;;
60088;SDS011;45961;53.574;55.878;2024-01-30T04:38:46;59.95;;;30.13;;
60088;SDS011;45961;53.574;55.878;2024-01-30T04:39:47;63.08;;;30.85;;
60088;SDS011;45961;53.574;55.878;2024-01-30T04:40:48;61.03;;;29.92;;
60088;SDS011;45961;53.574;55.878;2024-01-30T04:41:49;61.70;;;30.80;;
60088;SDS011;45961;53.574;55.878;2024-01-30T04:42:50;67.90;;;32.55;;
60088;SDS011;45961;53.574;55.878;2024-01-30T04:43:51;64.57;;;30.10;;
60088;SDS011;45961;53.574;55.878;2024-01-30T04:44:52;67.63;;;31.52;;
60088;SDS011;45961;53.574;55.878;2024-01-30T04:45:53;66.13;;;31.52;;
60088;SDS011;45961;53.574;55.878;2024-01-30T04:46:54;61.97;;;30.98;;
60088;SDS011;45961;53.574;55.878;2024-01-30T04:47:59;54.70;;;27.38;;
60088;SDS011;45961;53.574;55.878;2024-01-30T04:49:00;58.15;;;29.52;;
60088;SDS011;45961;53.574;55.878;2024-01-30T04:50:01;54.30;;;27.33;;
60088;SDS011;45961;53.574;55.878;2024-01-30T04:51:05;59.50;;;28.88;;
60088;SDS011;45961;53.574;55.878;2024-01-30T04:52:06;57.88;;;29.13;;
60088;SDS011;45961;53.574;55.878;2024-01-30T04:53:08;54.65;;;28.63;;
60088;SDS011;45961;53.574;55.878;2024-01-30T04:54:09;57.20;;;28.02;;
60088;SDS011;45961;53.574;55.878;2024-01-30T04:55:09;64.18;;;30.85;;
60088;SDS011;45961;53.574;55.878;2024-01-30T04:56:10;59.78;;;29.15;;
60088;SDS011;45961;53.574;55.878;2024-01-30T04:57:11;61.05;;;29.33;;
60088;SDS011;45961;53.574;55.878;2024-01-30T04:58:12;57.92;;;28.55;;
60088;SDS011;45961;53.574;55.878;2024-01-30T04:59:13;62.17;;;29.73;;
60088;SDS011;45961;53.574;55.878;2024-01-30T05:00:15;61.20;;;29.45;;
60088;SDS011;45961;53.574;55.878;2024-01-30T05:01:17;60.67;;;29.17;;
60088;SDS011;45961;53.574;55.878;2024-01-30T05:02:18;64.57;;;29.80;;
60088;SDS011;45961;53.574;55.878;2024-01-30T05:03:19;62.13;;;30.83;;
60088;SDS011;45961;53.574;55.878;2024-01-30T05:04:20;62.10;;;28.27;;
60088;SDS011;45961;53.574;55.878;2024-01-30T05:05:22;60.10;;;30.20;;
60088;SDS011;45961;53.574;55.878;2024-01-30T05:06:23;59.95;;;30.17;;
60088;SDS011;45961;53.574;55.878;2024-01-30T05:07:25;55.35;;;28.58;;
60088;SDS011;45961;53.574;55.878;2024-01-30T05:08:26;64.70;;;31.40;;
60088;SDS011;45961;53.574;55.878;2024-01-30T05:09:28;56.67;;;28.65;;
60088;SDS011;45961;53.574;55.878;2024-01-30T05:10:29;59.30;;;30.58;;
60088;SDS011;45961;53.574;55.878;2024-01-30T05:11:30;65.63;;;31.48;;
60088;SDS011;45961;53.574;55.878;2024-01-30T05:12:31;69.80;;;31.42;;
60088;SDS011;45961;53.574;55.878;2024-01-30T05:13:32;64.68;;;30.38;;
60088;SDS011;45961;53.574;55.878;2024-01-30T05:14:33;67.30;;;29.90;;
60088;SDS011;45961;53.574;55.878;2024-01-30T05:15:34;68.50;;;33.03;;
60088;SDS011;45961;53.574;55.878;2024-01-30T05:16:35;62.38;;;31.42;;
60088;SDS011;45961;53.574;55.878;2024-01-30T05:17:35;65.03;;;30.58;;
60088;SDS011;45961;53.574;55.878;2024-01-30T05:18:36;67.07;;;29.95;;
60088;SDS011;45961;53.574;55.878;2024-01-30T05:19:37;64.50;;;31.15;;
60088;SDS011;45961;53.574;55.878;2024-01-30T05:20:38;60.28;;;30.02;;
60088;SDS011;45961;53.574;55.878;2024-01-30T05:21:39;56.00;;;28.73;;
60088;SDS011;45961;53.574;55.878;2024-01-30T05:22:41;66.72;;;30.05;;
60088;SDS011;45961;53.574;55.878;2024-01-30T05:23:45;60.63;;;29.13;;
60088;SDS011;45961;53.574;55.878;2024-01-30T05:25:47;65.28;;;29.52;;
60088;SDS011;45961;53.574;55.878;2024-01-30T05:26:48;63.83;;;30.02;;
60088;SDS011;45961;53.574;55.878;2024-01-30T05:27:50;50.40;;;26.33;;
60088;SDS011;45961;53.574;55.878;2024-01-30T05:28:51;62.58;;;30.50;;
60088;SDS011;45961;53.574;55.878;2024-01-30T05:29:52;66.10;;;30.08;;
60088;SDS011;45961;53.574;55.878;2024-01-30T05:30:53;58.50;;;28.50;;
60088;SDS011;45961;53.574;55.878;2024-01-30T05:31:54;66.80;;;30.15;;
60088;SDS011;45961;53.574;55.878;2024-01-30T05:32:55;52.30;;;27.88;;
60088;SDS011;45961;53.574;55.878;2024-01-30T05:33:56;66.38;;;31.98;;
60088;SDS011;45961;53.574;55.878;2024-01-30T05:34:57;66.03;;;31.73;;
60088;SDS011;45961;53.574;55.878;2024-01-30T05:35:57;55.58;;;29.58;;
60088;SDS011;45961;53.574;55.878;2024-01-30T05:36:58;65.70;;;31.42;;
60088;SDS011;45961;53.574;55.878;2024-01-30T05:37:59;58.15;;;29.05;;
60088;SDS011;45961;53.574;55.878;2024-01-30T05:39:00;58.95;;;29.25;;
60088;SDS011;45961;53.574;55.878;2024-01-30T05:40:01;56.10;;;28.50;;
60088;SDS011;45961;53.574;55.878;2024-01-30T05:41:02;58.13;;;26.98;;
60088;SDS011;45961;53.574;55.878;2024-01-30T05:42:03;61.95;;;30.40;;
60088;SDS011;45961;53.574;55.878;2024-01-30T05:43:04;57.67;;;29.70;;
60088;SDS011;45961;53.574;55.878;2024-01-30T05:44:05;70.65;;;29.95;;
60088;SDS011;45961;53.574;55.878;2024-01-30T05:45:06;59.03;;;31.88;;
60088;SDS011;45961;53.574;55.878;2024-01-30T05:46:08;55.25;;;27.13;;
60088;SDS011;45961;53.574;55.878;2024-01-30T05:47:09;58.20;;;27.38;;
60088;SDS011;45961;53.574;55.878;2024-01-30T05:48:10;58.88;;;27.58;;
60088;SDS011;45961;53.574;55.878;2024-01-30T05:49:11;64.60;;;29.13;;
60088;SDS011;45961;53.574;55.878;2024-01-30T05:50:12;58.05;;;27.35;;
60088;SDS011;45961;53.574;55.878;2024-01-30T05:51:13;57.67;;;29.75;;
60088;SDS011;45961;53.574;55.878;2024-01-30T05:52:14;61.03;;;28.15;;
60088;SDS011;45961;53.574;55.878;2024-01-30T05:53:15;55.83;;;30.00;;
60088;SDS011;45961;53.574;55.878;2024-01-30T05:54:16;61.28;;;29.23;;
60088;SDS011;45961;53.574;55.878;2024-01-30T05:55:17;63.75;;;28.00;;
60088;SDS011;45961;53.574;55.878;2024-01-30T05:56:18;55.50;;;27.67;;
60088;SDS011;45961;53.574;55.878;2024-01-30T05:57:19;60.15;;;27.77;;
60088;SDS011;45961;53.574;55.878;2024-01-30T05:58:20;54.30;;;27.98;;
60088;SDS011;45961;53.574;55.878;2024-01-30T05:59:22;53.33;;;24.52;;
60088;SDS011;45961;53.574;55.878;2024-01-30T06:00:23;55.92;;;25.80;;
60088;SDS011;45961;53.574;55.878;2024-01-30T06:01:24;62.90;;;29.02;;
60088;SDS011;45961;53.574;55.878;2024-01-30T06:02:25;57.60;;;27.90;;
60088;SDS011;45961;53.574;55.878;2024-01-30T06:03:25;45.78;;;25.88;;
60088;SDS011;45961;53.574;55.878;2024-01-30T06:04:26;52.67;;;26.35;;
60088;SDS011;45961;53.574;55.878;2024-01-30T06:05:27;55.72;;;24.80;;
60088;SDS011;45961;53.574;55.878;2024-01-30T06:06:28;54.65;;;25.42;;
60088;SDS011;45961;53.574;55.878;2024-01-30T06:07:29;45.72;;;21.73;;
60088;SDS011;45961;53.574;55.878;2024-01-30T06:08:30;50.33;;;25.38;;
60088;SDS011;45961;53.574;55.878;2024-01-30T06:09:31;55.45;;;25.75;;